Time,TemperatureF,DewpointF,PressureIn,WindDirection,WindDirectionDegrees,WindSpeedMPH,WindSpeedGustMPH,Humidity,HourlyPrecipIn,Conditions,Clouds,dailyrainin,SoftwareType,DateUTC
2013-06-18 00:02:00,43.5,32.9,29.90,ENE,74,0.0,2.0,66,0.00,,,0.00,meteohub,2013-06-18 07:02:00,
2013-06-18 00:07:00,43.2,34.0,29.90,SSE,159,2.0,2.0,70,0.00,,,0.00,meteohub,2013-06-18 07:07:00,
2013-06-18 00:12:00,42.4,32.7,29.91,SSE,159,1.0,4.0,68,0.00,,,0.00,meteohub,2013-06-18 07:12:00,
2013-06-18 00:17:00,42.4,32.2,29.90,SSE,159,1.0,4.0,67,0.00,,,0.00,meteohub,2013-06-18 07:17:00,
2013-06-18 00:22:00,42.4,34.0,29.91,SSE,159,0.0,4.0,72,0.00,,,0.00,meteohub,2013-06-18 07:22:00,
2013-06-18 00:27:00,42.3,33.8,29.91,SSE,159,0.0,3.0,72,0.00,,,0.00,meteohub,2013-06-18 07:27:00,
2013-06-18 00:32:00,41.7,33.4,29.91,SSE,159,0.0,2.0,72,0.00,,,0.00,meteohub,2013-06-18 07:32:00,
2013-06-18 00:37:00,41.7,33.1,29.91,SSE,159,0.0,1.0,71,0.00,,,0.00,meteohub,2013-06-18 07:37:00,
2013-06-18 00:42:00,41.5,34.2,29.91,SSE,159,0.0,1.0,75,0.00,,,0.00,meteohub,2013-06-18 07:42:00,
2013-06-18 00:47:00,41.0,34.0,29.91,SSE,159,0.0,3.0,76,0.00,,,0.00,meteohub,2013-06-18 07:47:00,
2013-06-18 00:52:00,40.6,33.6,29.91,SSE,159,0.0,3.0,76,0.00,,,0.00,meteohub,2013-06-18 07:52:00,
2013-06-18 00:57:00,40.5,32.9,29.91,SSE,159,0.0,3.0,74,0.00,,,0.00,meteohub,2013-06-18 07:57:00,
2013-06-18 01:02:00,40.5,31.8,29.91,SSE,159,0.0,1.0,71,0.00,,,0.00,meteohub,2013-06-18 08:02:00,
2013-06-18 01:07:00,40.3,34.0,29.92,SSE,159,0.0,2.0,78,0.00,,,0.00,meteohub,2013-06-18 08:07:00,
2013-06-18 01:12:00,40.1,32.2,29.91,SSE,159,0.0,2.0,73,0.00,,,0.00,meteohub,2013-06-18 08:12:00,
2013-06-18 01:17:00,40.1,33.4,29.92,SSE,159,1.0,2.0,77,0.00,,,0.00,meteohub,2013-06-18 08:17:00,
2013-06-18 01:22:00,39.6,32.0,29.92,SSE,159,1.0,2.0,74,0.00,,,0.00,meteohub,2013-06-18 08:22:00,
2013-06-18 01:27:00,39.6,32.9,29.92,SSE,159,1.0,2.0,77,0.00,,,0.00,meteohub,2013-06-18 08:27:00,
2013-06-18 01:32:00,38.7,32.7,29.92,SSE,159,0.0,3.0,79,0.00,,,0.00,meteohub,2013-06-18 08:32:00,
2013-06-18 01:37:00,38.5,32.2,29.92,SSE,159,0.0,3.0,78,0.00,,,0.00,meteohub,2013-06-18 08:37:00,
2013-06-18 01:42:00,38.5,32.2,29.92,SSE,159,0.0,3.0,78,0.00,,,0.00,meteohub,2013-06-18 08:42:00,
2013-06-18 01:47:00,38.7,31.8,29.92,SSE,159,0.0,1.0,76,0.00,,,0.00,meteohub,2013-06-18 08:47:00,
2013-06-18 01:52:00,38.7,33.1,29.92,SSE,159,0.0,1.0,80,0.00,,,0.00,meteohub,2013-06-18 08:52:00,
2013-06-18 01:57:00,38.3,32.9,29.92,SSE,159,0.0,1.0,81,0.00,,,0.00,meteohub,2013-06-18 08:57:00,
2013-06-18 02:02:00,37.9,32.7,29.92,SSE,159,1.0,2.0,81,0.00,,,0.00,meteohub,2013-06-18 09:02:00,
2013-06-18 02:07:00,37.8,32.5,29.92,SSE,159,1.0,3.0,81,0.00,,,0.00,meteohub,2013-06-18 09:07:00,
2013-06-18 02:12:00,37.4,32.2,29.92,SSE,159,0.0,3.0,81,0.00,,,0.00,meteohub,2013-06-18 09:12:00,
2013-06-18 02:17:00,37.4,31.8,29.92,SSE,159,1.0,3.0,80,0.00,,,0.00,meteohub,2013-06-18 09:17:00,
2013-06-18 02:22:00,37.9,31.6,29.92,SSE,159,1.0,2.0,78,0.00,,,0.00,meteohub,2013-06-18 09:22:00,
2013-06-18 02:27:00,37.8,31.8,29.92,SSE,163,0.0,4.0,79,0.00,,,0.00,meteohub,2013-06-18 09:27:00,
2013-06-18 02:32:00,37.2,31.6,29.93,SSE,163,0.0,4.0,80,0.00,,,0.00,meteohub,2013-06-18 09:32:00,
2013-06-18 02:37:00,37.0,30.7,29.93,SSE,163,1.0,4.0,78,0.00,,,0.00,meteohub,2013-06-18 09:37:00,
2013-06-18 02:42:00,36.9,31.6,29.93,SSE,163,0.0,3.0,81,0.00,,,0.00,meteohub,2013-06-18 09:42:00,
2013-06-18 02:47:00,36.9,31.8,29.93,SSE,165,1.0,2.0,82,0.00,,,0.00,meteohub,2013-06-18 09:47:00,
2013-06-18 02:52:00,36.7,31.6,29.93,SSE,165,0.0,3.0,82,0.00,,,0.00,meteohub,2013-06-18 09:52:00,
2013-06-18 02:57:00,36.5,31.8,29.93,SSE,165,0.0,3.0,83,0.00,,,0.00,meteohub,2013-06-18 09:57:00,
2013-06-18 03:02:00,36.3,31.3,29.93,SSE,165,1.0,3.0,82,0.00,,,0.00,meteohub,2013-06-18 10:02:00,
2013-06-18 03:07:00,36.3,31.1,29.93,SSE,165,0.0,2.0,81,0.00,,,0.00,meteohub,2013-06-18 10:07:00,
2013-06-18 03:12:00,36.1,31.5,29.94,SSE,165,0.0,2.0,83,0.00,,,0.00,meteohub,2013-06-18 10:12:00,
2013-06-18 03:17:00,36.1,31.8,29.94,SSE,165,0.0,2.0,84,0.00,,,0.00,meteohub,2013-06-18 10:17:00,
2013-06-18 03:22:00,36.1,32.0,29.94,SSE,165,0.0,1.0,85,0.00,,,0.00,meteohub,2013-06-18 10:22:00,
2013-06-18 03:27:00,36.0,31.6,29.94,SSE,165,0.0,1.0,84,0.00,,,0.00,meteohub,2013-06-18 10:27:00,
2013-06-18 03:32:00,35.8,30.7,29.94,SSE,165,0.0,0.0,82,0.00,,,0.00,meteohub,2013-06-18 10:32:00,
2013-06-18 03:37:00,35.8,30.6,29.94,SSE,165,0.0,1.0,81,0.00,,,0.00,meteohub,2013-06-18 10:37:00,
2013-06-18 03:42:00,36.1,30.2,29.94,SSE,165,2.0,2.0,79,0.00,,,0.00,meteohub,2013-06-18 10:42:00,
2013-06-18 03:47:00,36.3,30.2,29.94,SSE,165,0.0,2.0,78,0.00,,,0.00,meteohub,2013-06-18 10:47:00,
2013-06-18 03:52:00,36.3,30.7,29.95,SSE,165,0.0,2.0,80,0.00,,,0.00,meteohub,2013-06-18 10:52:00,
2013-06-18 03:57:00,36.1,30.2,29.95,SSE,165,0.0,2.0,79,0.00,,,0.00,meteohub,2013-06-18 10:57:00,
2013-06-18 04:02:00,35.8,31.1,29.95,SSE,165,0.0,1.0,83,0.00,,,0.00,meteohub,2013-06-18 11:02:00,
2013-06-18 04:07:00,35.4,31.1,29.95,SSE,165,0.0,3.0,84,0.00,,,0.00,meteohub,2013-06-18 11:07:00,
2013-06-18 04:12:00,35.1,30.4,29.96,SSE,165,0.0,3.0,83,0.00,,,0.00,meteohub,2013-06-18 11:12:00,
2013-06-18 04:17:00,34.9,30.6,29.96,SSE,165,0.0,3.0,84,0.00,,,0.00,meteohub,2013-06-18 11:17:00,
2013-06-18 04:22:00,34.7,30.0,29.96,SSE,165,0.0,2.0,83,0.00,,,0.00,meteohub,2013-06-18 11:22:00,
2013-06-18 04:27:00,34.3,30.0,29.96,SSE,165,0.0,1.0,84,0.00,,,0.00,meteohub,2013-06-18 11:27:00,
2013-06-18 04:32:00,34.3,30.6,29.96,SSE,165,0.0,1.0,86,0.00,,,0.00,meteohub,2013-06-18 11:32:00,
2013-06-18 04:37:00,34.2,30.2,29.96,SSE,165,1.0,1.0,85,0.00,,,0.00,meteohub,2013-06-18 11:37:00,
2013-06-18 04:42:00,34.0,29.7,29.96,SSE,165,0.0,2.0,84,0.00,,,0.00,meteohub,2013-06-18 11:42:00,
2013-06-18 04:47:00,34.0,30.0,29.96,SSE,165,0.0,2.0,85,0.00,,,0.00,meteohub,2013-06-18 11:47:00,
2013-06-18 04:57:00,34.0,30.0,29.97,SSE,165,0.0,2.0,85,0.00,,,0.00,meteohub,2013-06-18 11:57:00,
2013-06-18 05:02:00,33.8,29.1,29.97,SSE,165,2.0,2.0,83,0.00,,,0.00,meteohub,2013-06-18 12:02:00,
2013-06-18 05:07:00,34.0,30.0,29.97,SSE,165,0.0,2.0,85,0.00,,,0.00,meteohub,2013-06-18 12:07:00,
2013-06-18 05:12:00,34.0,30.2,29.97,SSE,165,0.0,2.0,86,0.00,,,0.00,meteohub,2013-06-18 12:12:00,
2013-06-18 05:17:00,33.8,30.0,29.97,SSE,165,0.0,2.0,86,0.00,,,0.00,meteohub,2013-06-18 12:17:00,
2013-06-18 05:22:00,33.6,30.2,29.97,SSE,165,0.0,1.0,87,0.00,,,0.00,meteohub,2013-06-18 12:22:00,
2013-06-18 05:27:00,33.4,30.0,29.97,SSE,165,0.0,0.0,87,0.00,,,0.00,meteohub,2013-06-18 12:27:00,
2013-06-18 05:32:00,33.4,29.7,29.97,SSE,165,0.0,0.0,86,0.00,,,0.00,meteohub,2013-06-18 12:32:00,
2013-06-18 05:37:00,33.4,30.0,29.97,SSE,165,0.0,1.0,87,0.00,,,0.00,meteohub,2013-06-18 12:37:00,
2013-06-18 05:42:00,33.4,30.6,29.97,SSE,165,0.0,1.0,89,0.00,,,0.00,meteohub,2013-06-18 12:42:00,
2013-06-18 05:47:00,33.6,30.7,29.97,SSE,165,0.0,1.0,89,0.00,,,0.00,meteohub,2013-06-18 12:47:00,
2013-06-18 05:52:00,33.4,30.2,29.97,SSE,165,0.0,1.0,88,0.00,,,0.00,meteohub,2013-06-18 12:52:00,
2013-06-18 05:57:00,33.6,30.4,29.97,SSE,165,0.0,1.0,88,0.00,,,0.00,meteohub,2013-06-18 12:57:00,
2013-06-18 06:02:00,33.6,30.2,29.97,SSE,165,0.0,0.0,87,0.00,,,0.00,meteohub,2013-06-18 13:02:00,
2013-06-18 06:07:00,33.8,30.0,29.97,SSE,165,0.0,0.0,86,0.00,,,0.00,meteohub,2013-06-18 13:07:00,
2013-06-18 06:12:00,34.0,30.0,29.97,SSE,165,0.0,0.0,85,0.00,,,0.00,meteohub,2013-06-18 13:12:00,
2013-06-18 06:17:00,34.3,30.6,29.96,SSE,165,0.0,0.0,86,0.00,,,0.00,meteohub,2013-06-18 13:17:00,
2013-06-18 06:22:00,34.7,30.4,29.97,SSE,165,0.0,0.0,84,0.00,,,0.00,meteohub,2013-06-18 13:22:00,
2013-06-18 06:27:00,35.4,30.7,29.97,SSE,165,0.0,1.0,83,0.00,,,0.00,meteohub,2013-06-18 13:27:00,
2013-06-18 06:32:00,37.0,31.5,29.97,SSE,165,0.0,3.0,80,0.00,,,0.00,meteohub,2013-06-18 13:32:00,
2013-06-18 06:37:00,38.7,32.0,29.96,SSE,165,0.0,3.0,77,0.00,,,0.00,meteohub,2013-06-18 13:37:00,
2013-06-18 06:42:00,40.1,33.1,29.97,SSE,165,0.0,3.0,76,0.00,,,0.00,meteohub,2013-06-18 13:42:00,
2013-06-18 06:47:00,41.4,33.4,29.96,SSE,165,0.0,1.0,73,0.00,,,0.00,meteohub,2013-06-18 13:47:00,
2013-06-18 06:52:00,42.6,33.4,29.96,SSE,165,0.0,1.0,70,0.00,,,0.00,meteohub,2013-06-18 13:52:00,
2013-06-18 07:02:00,45.7,34.2,29.96,SSE,165,0.0,2.0,64,0.00,,,0.00,meteohub,2013-06-18 14:02:00,
2013-06-18 07:12:00,48.0,34.0,29.95,SSE,165,0.0,2.0,58,0.00,,,0.00,meteohub,2013-06-18 14:12:00,
2013-06-18 07:17:00,48.9,34.9,29.95,SSE,165,0.0,2.0,58,0.00,,,0.00,meteohub,2013-06-18 14:17:00,
2013-06-18 07:22:00,49.3,34.7,29.95,SSE,165,0.0,2.0,57,0.00,,,0.00,meteohub,2013-06-18 14:22:00,
2013-06-18 07:27:00,49.5,34.9,29.95,SSE,165,0.0,2.0,57,0.00,,,0.00,meteohub,2013-06-18 14:27:00,
2013-06-18 07:32:00,49.8,34.7,29.95,SSE,165,0.0,1.0,56,0.00,,,0.00,meteohub,2013-06-18 14:32:00,
2013-06-18 07:37:00,50.5,35.4,29.95,SSE,166,2.0,2.0,56,0.00,,,0.00,meteohub,2013-06-18 14:37:00,
2013-06-18 07:42:00,51.1,36.3,29.94,SSE,166,0.0,2.0,57,0.00,,,0.00,meteohub,2013-06-18 14:42:00,
2013-06-18 07:47:00,51.8,35.2,29.94,SSE,166,0.0,2.0,53,0.00,,,0.00,meteohub,2013-06-18 14:47:00,
2013-06-18 07:57:00,53.6,35.4,29.94,SSE,166,0.0,1.0,50,0.00,,,0.00,meteohub,2013-06-18 14:57:00,
2013-06-18 08:02:00,54.7,35.4,29.94,SSE,165,0.0,2.0,48,0.00,,,0.00,meteohub,2013-06-18 15:02:00,
2013-06-18 08:07:00,55.2,36.3,29.94,SSE,165,0.0,2.0,49,0.00,,,0.00,meteohub,2013-06-18 15:07:00,
2013-06-18 08:12:00,56.3,38.5,29.94,SSE,165,0.0,2.0,51,0.00,,,0.00,meteohub,2013-06-18 15:12:00,
2013-06-18 08:17:00,56.8,37.9,29.93,SSE,165,0.0,1.0,49,0.00,,,0.00,meteohub,2013-06-18 15:17:00,
2013-06-18 08:22:00,57.7,37.6,29.93,SSE,167,0.0,1.0,47,0.00,,,0.00,meteohub,2013-06-18 15:22:00,
2013-06-18 08:27:00,58.1,39.6,29.93,SSE,167,2.0,2.0,50,0.00,,,0.00,meteohub,2013-06-18 15:27:00,
2013-06-18 08:32:00,58.5,38.8,29.92,SSE,168,1.0,2.0,48,0.00,,,0.00,meteohub,2013-06-18 15:32:00,
2013-06-18 08:37:00,58.8,37.6,29.92,South,173,0.0,3.0,45,0.00,,,0.00,meteohub,2013-06-18 15:37:00,
2013-06-18 08:42:00,59.4,38.7,29.91,South,173,2.0,3.0,46,0.00,,,0.00,meteohub,2013-06-18 15:42:00,
2013-06-18 08:47:00,59.9,38.5,29.91,South,173,2.0,3.0,45,0.00,,,0.00,meteohub,2013-06-18 15:47:00,
2013-06-18 08:52:00,60.6,39.2,29.91,South,173,1.0,3.0,45,0.00,,,0.00,meteohub,2013-06-18 15:52:00,
2013-06-18 08:57:00,61.3,39.7,29.90,South,176,1.0,3.0,45,0.00,,,0.00,meteohub,2013-06-18 15:57:00,
2013-06-18 09:02:00,61.5,39.4,29.90,SW,226,2.0,3.0,44,0.00,,,0.00,meteohub,2013-06-18 16:02:00,
2013-06-18 09:07:00,62.2,38.3,29.89,West,263,2.0,3.0,41,0.00,,,0.00,meteohub,2013-06-18 16:07:00,
2013-06-18 09:12:00,62.8,38.7,29.89,WNW,292,4.0,4.0,41,0.00,,,0.00,meteohub,2013-06-18 16:12:00,
2013-06-18 09:17:00,63.0,38.3,29.88,WNW,284,1.0,4.0,40,0.00,,,0.00,meteohub,2013-06-18 16:17:00,
2013-06-18 09:22:00,63.7,40.8,29.88,WNW,292,2.0,4.0,43,0.00,,,0.00,meteohub,2013-06-18 16:22:00,
2013-06-18 09:27:00,64.2,40.6,29.87,West,279,3.0,5.0,42,0.00,,,0.00,meteohub,2013-06-18 16:27:00,
2013-06-18 09:32:00,64.9,39.4,29.87,WNW,283,2.0,5.0,39,0.00,,,0.00,meteohub,2013-06-18 16:32:00,
2013-06-18 09:42:00,65.8,41.5,29.86,WNW,285,4.0,5.0,41,0.00,,,0.00,meteohub,2013-06-18 16:42:00,
2013-06-18 09:47:00,66.0,41.0,29.86,NW,310,3.0,6.0,40,0.00,,,0.00,meteohub,2013-06-18 16:47:00,
2013-06-18 09:52:00,66.6,40.8,29.86,NW,315,4.0,6.0,39,0.00,,,0.00,meteohub,2013-06-18 16:52:00,
2013-06-18 09:57:00,66.6,41.5,29.86,NW,306,3.0,6.0,40,0.00,,,0.00,meteohub,2013-06-18 16:57:00,
2013-06-18 10:02:00,66.9,44.2,29.85,NW,321,3.0,6.0,44,0.00,,,0.00,meteohub,2013-06-18 17:02:00,
2013-06-18 10:07:00,68.2,43.5,29.85,NW,308,5.0,6.0,41,0.00,,,0.00,meteohub,2013-06-18 17:07:00,
2013-06-18 10:17:00,70.0,37.0,29.84,NNW,337,1.0,6.0,30,0.00,,,0.00,meteohub,2013-06-18 17:17:00,
2013-06-18 10:22:00,70.3,36.5,29.84,West,275,1.0,6.0,29,0.00,,,0.00,meteohub,2013-06-18 17:22:00,
2013-06-18 10:27:00,70.0,43.2,29.84,WNW,301,1.0,5.0,38,0.00,,,0.00,meteohub,2013-06-18 17:27:00,
2013-06-18 10:32:00,69.8,37.0,29.83,NW,309,0.0,5.0,30,0.00,,,0.00,meteohub,2013-06-18 17:32:00,
2013-06-18 10:37:00,70.3,36.5,29.83,NW,309,1.0,4.0,29,0.00,,,0.00,meteohub,2013-06-18 17:37:00,
2013-06-18 10:47:00,72.0,34.2,29.83,SE,141,1.0,4.0,25,0.00,,,0.00,meteohub,2013-06-18 17:47:00,
2013-06-18 10:52:00,72.1,32.4,29.83,SE,144,2.0,4.0,23,0.00,,,0.00,meteohub,2013-06-18 17:52:00,
2013-06-18 10:57:00,71.2,37.4,29.83,SSE,155,1.0,5.0,29,0.00,,,0.00,meteohub,2013-06-18 17:57:00,
2013-06-18 11:02:00,70.9,33.3,29.83,SSE,155,1.0,5.0,25,0.00,,,0.00,meteohub,2013-06-18 18:02:00,
2013-06-18 11:07:00,71.2,37.4,29.83,SE,140,2.0,5.0,29,0.00,,,0.00,meteohub,2013-06-18 18:07:00,
2013-06-18 11:12:00,72.0,35.2,29.82,SE,129,3.0,4.0,26,0.00,,,0.00,meteohub,2013-06-18 18:12:00,
2013-06-18 11:17:00,72.9,36.0,29.82,SSE,159,5.0,7.0,26,0.00,,,0.00,meteohub,2013-06-18 18:17:00,
2013-06-18 11:22:00,73.4,31.1,29.82,ESE,118,0.0,8.0,21,0.00,,,0.00,meteohub,2013-06-18 18:22:00,
2013-06-18 11:27:00,74.1,39.0,29.81,SE,142,1.0,8.0,28,0.00,,,0.00,meteohub,2013-06-18 18:27:00,
2013-06-18 11:37:00,74.3,28.0,29.81,SSE,151,3.0,7.0,18,0.00,,,0.00,meteohub,2013-06-18 18:37:00,
2013-06-18 11:47:00,72.7,31.6,29.81,SSE,159,1.0,7.0,22,0.00,,,0.00,meteohub,2013-06-18 18:47:00,
2013-06-18 11:57:00,72.1,30.0,29.81,ESE,119,2.0,7.0,21,0.00,,,0.00,meteohub,2013-06-18 18:57:00,
2013-06-18 12:02:00,72.7,30.6,29.81,East,98,6.0,7.0,21,0.00,,,0.00,meteohub,2013-06-18 19:02:00,
2013-06-18 12:07:00,73.4,31.1,29.81,SE,129,1.0,10.0,21,0.00,,,0.00,meteohub,2013-06-18 19:07:00,
2013-06-18 12:12:00,73.2,28.4,29.81,ESE,109,0.0,10.0,19,0.00,,,0.00,meteohub,2013-06-18 19:12:00,
2013-06-18 12:17:00,73.8,32.5,29.81,East,101,11.0,11.0,22,0.00,,,0.00,meteohub,2013-06-18 19:17:00,
2013-06-18 12:22:00,74.1,37.0,29.81,East,97,9.0,14.0,26,0.00,,,0.00,meteohub,2013-06-18 19:22:00,
2013-06-18 12:27:00,74.1,40.6,29.80,SSE,158,13.0,16.0,30,0.00,,,0.00,meteohub,2013-06-18 19:27:00,
2013-06-18 12:32:00,73.6,33.4,29.80,East,87,9.0,16.0,23,0.00,,,0.00,meteohub,2013-06-18 19:32:00,
2013-06-18 12:37:00,72.7,38.7,29.80,South,178,5.0,16.0,29,0.00,,,0.00,meteohub,2013-06-18 19:37:00,
2013-06-18 12:47:00,72.3,33.4,29.79,ESE,118,9.0,15.0,24,0.00,,,0.00,meteohub,2013-06-18 19:47:00,
2013-06-18 12:52:00,73.0,37.9,29.79,SSE,157,5.0,15.0,28,0.00,,,0.00,meteohub,2013-06-18 19:52:00,
2013-06-18 12:57:00,71.8,34.0,29.79,South,191,3.0,15.0,25,0.00,,,0.00,meteohub,2013-06-18 19:57:00,
2013-06-18 13:07:00,71.2,37.4,29.79,SSE,154,0.0,11.0,29,0.00,,,0.00,meteohub,2013-06-18 20:07:00,
2013-06-18 13:12:00,71.2,36.5,29.79,East,98,5.0,11.0,28,0.00,,,0.00,meteohub,2013-06-18 20:12:00,
2013-06-18 13:17:00,71.4,34.7,29.79,ESE,104,4.0,11.0,26,0.00,,,0.00,meteohub,2013-06-18 20:17:00,
2013-06-18 13:22:00,71.4,34.7,29.79,SSE,153,3.0,8.0,26,0.00,,,0.00,meteohub,2013-06-18 20:22:00,
2013-06-18 13:27:00,70.5,37.6,29.82,NW,311,13.0,13.0,30,0.00,,,0.00,meteohub,2013-06-18 20:27:00,
2013-06-18 13:32:00,67.6,30.6,29.83,NNW,327,3.0,25.0,25,0.00,,,0.00,meteohub,2013-06-18 20:32:00,
2013-06-18 13:37:00,67.5,32.4,29.81,SSE,155,5.0,25.0,27,0.00,,,0.00,meteohub,2013-06-18 20:37:00,
2013-06-18 13:42:00,68.4,36.5,29.80,SW,229,3.0,25.0,31,0.00,,,0.00,meteohub,2013-06-18 20:42:00,
2013-06-18 13:47:00,69.8,30.4,29.79,NE,43,10.0,20.0,23,0.00,,,0.00,meteohub,2013-06-18 20:47:00,
2013-06-18 13:52:00,71.8,29.7,29.78,ENE,59,10.0,16.0,21,0.00,,,0.00,meteohub,2013-06-18 20:52:00,
2013-06-18 13:57:00,73.6,28.8,29.77,ENE,73,4.0,16.0,19,0.00,,,0.00,meteohub,2013-06-18 20:57:00,
2013-06-18 14:02:00,74.3,31.8,29.77,NNW,331,1.0,16.0,21,0.00,,,0.00,meteohub,2013-06-18 21:02:00,
2013-06-18 14:07:00,74.5,33.1,29.77,West,261,2.0,10.0,22,0.00,,,0.00,meteohub,2013-06-18 21:07:00,
2013-06-18 14:12:00,74.1,39.0,29.77,SW,234,5.0,8.0,28,0.00,,,0.00,meteohub,2013-06-18 21:12:00,
2013-06-18 14:17:00,73.8,30.2,29.77,WSW,237,2.0,7.0,20,0.00,,,0.00,meteohub,2013-06-18 21:17:00,
2013-06-18 14:22:00,73.8,36.7,29.77,West,265,2.0,5.0,26,0.00,,,0.00,meteohub,2013-06-18 21:22:00,
2013-06-18 14:27:00,73.0,34.2,29.77,North,5,4.0,5.0,24,0.00,,,0.00,meteohub,2013-06-18 21:27:00,
2013-06-18 14:32:00,72.9,35.1,29.77,North,5,1.0,6.0,25,0.00,,,0.00,meteohub,2013-06-18 21:32:00,
2013-06-18 14:37:00,72.9,29.5,29.77,North,5,0.0,6.0,20,0.00,,,0.00,meteohub,2013-06-18 21:37:00,
2013-06-18 14:42:00,72.5,34.7,29.77,WNW,301,4.0,6.0,25,0.00,,,0.00,meteohub,2013-06-18 21:42:00,
2013-06-18 14:47:00,72.1,34.3,29.76,NW,311,1.0,6.0,25,0.00,,,0.00,meteohub,2013-06-18 21:47:00,
2013-06-18 14:52:00,72.3,25.0,29.76,NW,317,4.0,6.0,17,0.00,,,0.00,meteohub,2013-06-18 21:52:00,
2013-06-18 14:57:00,72.9,27.0,29.76,West,271,3.0,8.0,18,0.00,,,0.00,meteohub,2013-06-18 21:57:00,
2013-06-18 15:02:00,73.8,27.7,29.76,NW,311,6.0,8.0,18,0.00,,,0.00,meteohub,2013-06-18 22:02:00,
2013-06-18 15:07:00,74.7,25.5,29.76,WNW,286,0.0,8.0,16,0.00,,,0.00,meteohub,2013-06-18 22:07:00,
2013-06-18 15:12:00,74.8,28.4,29.75,NW,309,4.0,8.0,18,0.00,,,0.00,meteohub,2013-06-18 22:12:00,
2013-06-18 15:17:00,74.7,28.4,29.75,NW,315,9.0,9.0,18,0.00,,,0.00,meteohub,2013-06-18 22:17:00,
2013-06-18 15:22:00,73.4,25.9,29.76,NW,304,2.0,9.0,17,0.00,,,0.00,meteohub,2013-06-18 22:22:00,
2013-06-18 15:27:00,72.9,28.2,29.76,NW,304,10.0,10.0,19,0.00,,,0.00,meteohub,2013-06-18 22:27:00,
2013-06-18 15:32:00,72.7,31.6,29.76,NW,311,3.0,10.0,22,0.00,,,0.00,meteohub,2013-06-18 22:32:00,
2013-06-18 15:37:00,72.9,25.5,29.75,NW,311,2.0,10.0,17,0.00,,,0.00,meteohub,2013-06-18 22:37:00,
2013-06-18 15:42:00,73.0,28.4,29.74,NW,314,4.0,10.0,19,0.00,,,0.00,meteohub,2013-06-18 22:42:00,
2013-06-18 15:47:00,72.5,27.9,29.74,NW,311,6.0,6.0,19,0.00,,,0.00,meteohub,2013-06-18 22:47:00,
2013-06-18 15:52:00,71.6,27.1,29.74,West,277,2.0,8.0,19,0.00,,,0.00,meteohub,2013-06-18 22:52:00,
2013-06-18 15:57:00,71.1,38.1,29.74,South,175,1.0,8.0,30,0.00,,,0.00,meteohub,2013-06-18 22:57:00,
2013-06-18 16:02:00,70.3,39.9,29.74,South,175,3.0,9.0,33,0.00,,,0.00,meteohub,2013-06-18 23:02:00,
2013-06-18 16:07:00,70.2,41.9,29.74,SSE,154,1.0,9.0,36,0.00,,,0.00,meteohub,2013-06-18 23:07:00,
2013-06-18 16:12:00,71.2,39.9,29.73,SE,132,1.0,8.0,32,0.00,,,0.00,meteohub,2013-06-18 23:12:00,
2013-06-18 16:17:00,72.3,39.9,29.73,ESE,105,4.0,5.0,31,0.00,,,0.00,meteohub,2013-06-18 23:17:00,
2013-06-18 16:22:00,73.2,39.0,29.73,SSE,158,4.0,5.0,29,0.00,,,0.00,meteohub,2013-06-18 23:22:00,
2013-06-18 16:27:00,73.0,40.6,29.73,SSE,157,4.0,5.0,31,0.00,,,0.00,meteohub,2013-06-18 23:27:00,
2013-06-18 16:32:00,73.0,42.3,29.72,SE,125,1.0,5.0,33,0.00,,,0.00,meteohub,2013-06-18 23:32:00,
2013-06-18 16:37:00,73.2,45.3,29.72,SSE,161,2.0,5.0,37,0.00,,,0.00,meteohub,2013-06-18 23:37:00,
2013-06-18 16:47:00,72.0,42.8,29.71,SSE,160,4.0,5.0,35,0.00,,,0.00,meteohub,2013-06-18 23:47:00,
2013-06-18 16:52:00,70.5,39.2,29.71,ESE,107,1.0,5.0,32,0.00,,,0.00,meteohub,2013-06-18 23:52:00,
2013-06-18 16:57:00,70.3,38.3,29.71,SSE,159,2.0,7.0,31,0.00,,,0.00,meteohub,2013-06-18 23:57:00,
2013-06-18 17:02:00,70.9,44.1,29.71,SSE,154,2.0,7.0,38,0.00,,,0.00,meteohub,2013-06-19 00:02:00,
2013-06-18 17:07:00,71.2,43.0,29.70,SSE,153,0.0,7.0,36,0.00,,,0.00,meteohub,2013-06-19 00:07:00,
2013-06-18 17:12:00,70.5,40.8,29.70,SSE,149,1.0,6.0,34,0.00,,,0.00,meteohub,2013-06-19 00:12:00,
2013-06-18 17:17:00,69.6,38.5,29.70,SSE,155,3.0,6.0,32,0.00,,,0.00,meteohub,2013-06-19 00:17:00,
2013-06-18 17:22:00,69.1,41.0,29.70,SSE,155,2.0,5.0,36,0.00,,,0.00,meteohub,2013-06-19 00:22:00,
2013-06-18 17:27:00,68.0,43.3,29.70,SSE,150,3.0,5.0,41,0.00,,,0.00,meteohub,2013-06-19 00:27:00,
2013-06-18 17:32:00,68.5,33.3,29.69,SE,140,2.0,6.0,27,0.00,,,0.00,meteohub,2013-06-19 00:32:00,
2013-06-18 17:37:00,70.9,33.3,29.69,East,96,3.0,9.0,25,0.00,,,0.00,meteohub,2013-06-19 00:37:00,
2013-06-18 17:42:00,72.3,32.4,29.69,East,95,8.0,9.0,23,0.00,,,0.00,meteohub,2013-06-19 00:42:00,
2013-06-18 17:47:00,73.2,30.9,29.69,SW,236,4.0,14.0,21,0.00,,,0.00,meteohub,2013-06-19 00:47:00,
2013-06-18 17:52:00,73.0,28.4,29.69,NNW,333,1.0,14.0,19,0.00,,,0.00,meteohub,2013-06-19 00:52:00,
2013-06-18 18:02:00,72.9,25.5,29.69,NW,323,4.0,12.0,17,0.00,,,0.00,meteohub,2013-06-19 01:02:00,
2013-06-18 18:07:00,72.7,25.3,29.69,NW,306,5.0,12.0,17,0.00,,,0.00,meteohub,2013-06-19 01:07:00,
2013-06-18 18:12:00,71.6,25.9,29.70,NW,306,6.0,12.0,18,0.00,,,0.00,meteohub,2013-06-19 01:12:00,
2013-06-18 18:17:00,70.7,22.3,29.70,NW,315,5.0,12.0,16,0.00,,,0.00,meteohub,2013-06-19 01:17:00,
2013-06-18 18:22:00,70.7,19.2,29.70,NW,310,5.0,8.0,14,0.00,,,0.00,meteohub,2013-06-19 01:22:00,
2013-06-18 18:27:00,71.1,22.6,29.70,NW,309,3.0,12.0,16,0.00,,,0.00,meteohub,2013-06-19 01:27:00,
2013-06-18 18:32:00,71.2,19.6,29.70,NW,315,4.0,12.0,14,0.00,,,0.00,meteohub,2013-06-19 01:32:00,
2013-06-18 18:37:00,72.0,14.5,29.70,NW,309,5.0,12.0,11,0.00,,,0.00,meteohub,2013-06-19 01:37:00,
2013-06-18 18:47:00,72.3,16.9,29.71,West,268,2.0,9.0,12,0.00,,,0.00,meteohub,2013-06-19 01:47:00,
2013-06-18 18:52:00,72.3,14.9,29.71,WNW,288,1.0,6.0,11,0.00,,,0.00,meteohub,2013-06-19 01:52:00,
2013-06-18 18:57:00,72.3,16.9,29.71,WNW,288,0.0,6.0,12,0.00,,,0.00,meteohub,2013-06-19 01:57:00,
2013-06-18 19:02:00,72.3,18.7,29.71,WNW,288,0.0,6.0,13,0.00,,,0.00,meteohub,2013-06-19 02:02:00,
2013-06-18 19:07:00,71.8,26.1,29.71,WNW,288,0.0,3.0,18,0.00,,,0.00,meteohub,2013-06-19 02:07:00,
2013-06-18 19:12:00,70.5,23.5,29.71,WNW,288,2.0,3.0,17,0.00,,,0.00,meteohub,2013-06-19 02:12:00,
2013-06-18 19:17:00,69.4,28.9,29.70,SSW,207,2.0,3.0,22,0.00,,,0.00,meteohub,2013-06-19 02:17:00,
2013-06-18 19:22:00,66.7,35.1,29.70,South,169,2.0,3.0,31,0.00,,,0.00,meteohub,2013-06-19 02:22:00,
2013-06-18 19:27:00,64.9,28.2,29.71,South,169,0.0,3.0,25,0.00,,,0.00,meteohub,2013-06-19 02:27:00,
2013-06-18 19:32:00,63.9,23.2,29.71,South,169,2.0,3.0,21,0.00,,,0.00,meteohub,2013-06-19 02:32:00,
2013-06-18 19:37:00,63.5,31.5,29.71,South,191,0.0,3.0,30,0.00,,,0.00,meteohub,2013-06-19 02:37:00,
2013-06-18 19:47:00,62.6,17.2,29.71,South,190,1.0,3.0,17,0.00,,,0.00,meteohub,2013-06-19 02:47:00,
2013-06-18 19:52:00,62.4,20.8,29.72,South,190,0.0,3.0,20,0.00,,,0.00,meteohub,2013-06-19 02:52:00,
2013-06-18 19:57:00,62.1,16.7,29.72,South,190,1.0,2.0,17,0.00,,,0.00,meteohub,2013-06-19 02:57:00,
2013-06-18 20:07:00,60.6,20.5,29.73,SE,143,1.0,3.0,21,0.00,,,0.00,meteohub,2013-06-19 03:07:00,
2013-06-18 20:12:00,60.1,19.9,29.73,South,176,0.0,3.0,21,0.00,,,0.00,meteohub,2013-06-19 03:12:00,
2013-06-18 20:17:00,59.2,23.4,29.73,South,176,0.0,3.0,25,0.00,,,0.00,meteohub,2013-06-19 03:17:00,
2013-06-18 20:22:00,57.7,20.1,29.73,South,176,1.0,3.0,23,0.00,,,0.00,meteohub,2013-06-19 03:22:00,
2013-06-18 20:27:00,56.5,21.0,29.73,SSW,194,1.0,3.0,25,0.00,,,0.00,meteohub,2013-06-19 03:27:00,
2013-06-18 20:32:00,55.9,20.7,29.74,SE,130,0.0,5.0,25,0.00,,,0.00,meteohub,2013-06-19 03:32:00,
2013-06-18 20:37:00,56.1,17.8,29.74,East,99,0.0,5.0,22,0.00,,,0.00,meteohub,2013-06-19 03:37:00,
2013-06-18 20:42:00,55.9,25.7,29.74,East,99,0.0,5.0,31,0.00,,,0.00,meteohub,2013-06-19 03:42:00,
2013-06-18 20:52:00,54.7,24.6,29.75,East,99,0.0,3.0,31,0.00,,,0.00,meteohub,2013-06-19 03:52:00,
2013-06-18 20:57:00,53.8,26.1,29.75,East,99,0.0,3.0,34,0.00,,,0.00,meteohub,2013-06-19 03:57:00,
2013-06-18 21:02:00,53.1,19.0,29.75,East,99,3.0,3.0,26,0.00,,,0.00,meteohub,2013-06-19 04:02:00,
2013-06-18 21:07:00,53.1,23.2,29.75,East,99,1.0,3.0,31,0.00,,,0.00,meteohub,2013-06-19 04:07:00,
2013-06-18 21:12:00,52.5,25.0,29.76,East,99,0.0,3.0,34,0.00,,,0.00,meteohub,2013-06-19 04:12:00,
2013-06-18 21:17:00,51.6,25.5,29.76,East,99,0.0,3.0,36,0.00,,,0.00,meteohub,2013-06-19 04:17:00,
2013-06-18 21:22:00,50.9,23.5,29.76,East,99,0.0,2.0,34,0.00,,,0.00,meteohub,2013-06-19 04:22:00,
2013-06-18 21:27:00,50.2,25.0,29.76,East,99,1.0,2.0,37,0.00,,,0.00,meteohub,2013-06-19 04:27:00,
2013-06-18 21:32:00,49.6,23.2,29.76,East,99,0.0,2.0,35,0.00,,,0.00,meteohub,2013-06-19 04:32:00,
2013-06-18 21:37:00,48.9,27.3,29.77,NE,44,0.0,2.0,43,0.00,,,0.00,meteohub,2013-06-19 04:37:00,
2013-06-18 21:42:00,48.4,23.4,29.77,NE,44,0.0,3.0,37,0.00,,,0.00,meteohub,2013-06-19 04:42:00,
2013-06-18 21:47:00,48.0,24.3,29.77,NE,44,0.0,3.0,39,0.00,,,0.00,meteohub,2013-06-19 04:47:00,
2013-06-18 21:52:00,47.8,22.1,29.77,NE,44,2.0,2.0,36,0.00,,,0.00,meteohub,2013-06-19 04:52:00,
2013-06-18 21:57:00,47.1,27.9,29.77,NE,44,0.0,3.0,47,0.00,,,0.00,meteohub,2013-06-19 04:57:00,
2013-06-18 22:02:00,46.8,23.2,29.77,NE,44,1.0,3.0,39,0.00,,,0.00,meteohub,2013-06-19 05:02:00,
2013-06-18 22:07:00,46.2,26.1,29.77,NE,44,0.0,3.0,45,0.00,,,0.00,meteohub,2013-06-19 05:07:00,
2013-06-18 22:12:00,45.9,27.9,29.78,NE,44,0.0,3.0,49,0.00,,,0.00,meteohub,2013-06-19 05:12:00,
2013-06-18 22:17:00,45.7,25.5,29.78,NE,44,3.0,3.0,45,0.00,,,0.00,meteohub,2013-06-19 05:17:00,
2013-06-18 22:22:00,45.7,23.4,29.77,NE,43,0.0,3.0,41,0.00,,,0.00,meteohub,2013-06-19 05:22:00,
2013-06-18 22:27:00,45.1,25.5,29.77,NE,43,0.0,3.0,46,0.00,,,0.00,meteohub,2013-06-19 05:27:00,
2013-06-18 22:32:00,45.0,22.1,29.78,NE,43,0.0,3.0,40,0.00,,,0.00,meteohub,2013-06-19 05:32:00,
2013-06-18 22:37:00,44.8,26.2,29.78,NE,43,0.0,2.0,48,0.00,,,0.00,meteohub,2013-06-19 05:37:00,
2013-06-18 22:42:00,44.6,24.6,29.77,NE,43,0.0,2.0,45,0.00,,,0.00,meteohub,2013-06-19 05:42:00,
2013-06-18 22:47:00,44.4,23.9,29.77,NE,43,0.0,2.0,44,0.00,,,0.00,meteohub,2013-06-19 05:47:00,
2013-06-18 22:52:00,43.9,21.2,29.78,NE,43,0.0,2.0,40,0.00,,,0.00,meteohub,2013-06-19 05:52:00,
2013-06-18 22:57:00,43.5,19.0,29.77,NE,43,1.0,2.0,37,0.00,,,0.00,meteohub,2013-06-19 05:57:00,
2013-06-18 23:02:00,43.3,18.1,29.77,NE,43,0.0,2.0,36,0.00,,,0.00,meteohub,2013-06-19 06:02:00,
2013-06-18 23:07:00,43.3,23.4,29.77,NE,43,0.0,2.0,45,0.00,,,0.00,meteohub,2013-06-19 06:07:00,
2013-06-18 23:12:00,42.4,22.1,29.77,NE,43,0.0,2.0,44,0.00,,,0.00,meteohub,2013-06-19 06:12:00,
2013-06-18 23:17:00,41.7,20.3,29.78,NE,43,0.0,3.0,42,0.00,,,0.00,meteohub,2013-06-19 06:17:00,
2013-06-18 23:27:00,41.2,17.4,29.78,NE,43,1.0,2.0,38,0.00,,,0.00,meteohub,2013-06-19 06:27:00,
2013-06-18 23:32:00,40.6,23.0,29.78,NE,43,0.0,2.0,49,0.00,,,0.00,meteohub,2013-06-19 06:32:00,
2013-06-18 23:37:00,40.5,19.2,29.78,NE,43,0.0,2.0,42,0.00,,,0.00,meteohub,2013-06-19 06:37:00,
2013-06-18 23:42:00,40.5,18.0,29.78,NE,43,0.0,2.0,40,0.00,,,0.00,meteohub,2013-06-19 06:42:00,
2013-06-18 23:47:00,40.5,18.0,29.78,NE,43,0.0,2.0,40,0.00,,,0.00,meteohub,2013-06-19 06:47:00,
2013-06-18 23:52:00,40.5,22.3,29.78,NE,43,0.0,2.0,48,0.00,,,0.00,meteohub,2013-06-19 06:52:00,
2013-06-18 23:57:00,39.7,23.2,29.78,NE,43,0.0,1.0,51,0.00,,,0.00,meteohub,2013-06-19 06:57:00,